Decoded Metar for FMCZ (DZAOUDZI in MAYOTTE ISLAND) (IATA:DZA) | Meteo·Mobile Aviation Weather
aviador You're here:

FMCZ Decoded Metar

DZAOUDZI in MAYOTTE ISLAND
Report Time2018-09-22 15:30:00
UTC Time2018-09-22 15:41:58
Flight Rules vfr VFR
WindCalm
Visibility9999 m
Phenomena:N/A
Clouds:Broken 047 Hf
Expected CloudBase > 2,400 ft AGL from Temp-Dew spread
Ceiling4,700 ft
Temp26°C (ISA +11)
Dew Point20°C (70% RH)
QNH1015 hPa
Density Alt1,542 ft
Elevation23 ft
Report Wrong Elevation
Raw Report
METAR FMCZ 221530Z AUTO 00000KT 9999 BKN047 26/20 Q1015 NOSIG=####018000808####
SAEG31 HECA 221500

Extra information for FMCZ:More info

Metar Taf Metar & Taf Last 4 Metars F.Rules Stats Wind Profile Meteogram Temp Stats Airport Information Weather charts Add Link Nearby VenuesMetar ALERT Operation Metar Decoded Social comments